Time;durP1;ratioP1;P1;durP2;ratioP2;P2;SDS_P1;SDS_P2;PMS_P1;PMS_P2;Temp;Humidity;BMP_temperature;BMP_pressure;BME280_temperature;BME280_humidity;BME280_pressure;Samples;Min_cycle;Max_cycle;Signal;HPM_P1;HPM_P2
2022/10/20 00:02:15;;;;;;;21.83;18.33;;;12.70;99.90;;;;;;4992803;28;20467;-83
2022/10/20 00:04:43;;;;;;;21.80;17.63;;;12.70;99.90;;;;;;4998112;28;20448;-81
2022/10/20 00:07:09;;;;;;;21.00;17.87;;;12.60;99.90;;;;;;5002959;28;20443;-81
2022/10/20 00:09:36;;;;;;;19.10;17.10;;;12.60;99.90;;;;;;5000957;28;20476;-80
2022/10/20 00:12:03;;;;;;;21.53;18.37;;;12.50;99.90;;;;;;5016020;28;20515;-79
2022/10/20 00:14:30;;;;;;;18.67;16.70;;;12.50;99.90;;;;;;4992772;28;20451;-81
2022/10/20 00:16:58;;;;;;;25.63;17.27;;;12.50;99.90;;;;;;4987532;28;20831;-83
2022/10/20 00:19:25;;;;;;;19.63;17.63;;;12.50;99.90;;;;;;4988417;28;20821;-83
2022/10/20 00:21:53;;;;;;;19.97;17.87;;;12.50;99.90;;;;;;4989287;28;20470;-78
2022/10/20 00:24:20;;;;;;;18.70;16.90;;;12.40;99.90;;;;;;4993443;28;20443;-81
2022/10/20 00:26:47;;;;;;;20.43;17.20;;;12.30;99.90;;;;;;4991783;28;20921;-82
2022/10/20 00:29:14;;;;;;;18.33;16.47;;;12.30;99.90;;;;;;4989718;28;20962;-82
2022/10/20 00:31:40;;;;;;;19.97;16.60;;;12.30;99.90;;;;;;4991531;28;20472;-80
2022/10/20 00:34:07;;;;;;;19.00;16.53;;;12.30;99.90;;;;;;4991791;28;20446;-81
2022/10/20 00:36:34;;;;;;;18.17;16.10;;;12.30;99.90;;;;;;4992149;28;20456;-82
2022/10/20 00:39:04;;;;;;;23.00;18.93;;;12.30;99.90;;;;;;4992720;28;20849;-81
2022/10/20 00:41:32;;;;;;;19.50;17.50;;;12.30;99.90;;;;;;4990266;28;20471;-82
2022/10/20 00:44:01;;;;;;;20.33;17.97;;;12.20;99.90;;;;;;4989630;28;20440;-82
2022/10/20 00:46:32;;;;;;;23.93;16.77;;;12.20;99.90;;;;;;4994454;28;20937;-81
2022/10/20 00:49:02;;;;;;;19.30;17.23;;;12.20;99.90;;;;;;5000595;28;20443;-80
2022/10/20 00:51:32;;;;;;;19.07;17.03;;;12.20;99.90;;;;;;4994987;28;20475;-80
2022/10/20 00:54:07;;;;;;;19.70;17.57;;;12.20;99.90;;;;;;4998670;28;20815;-81
2022/10/20 00:56:35;;;;;;;20.73;16.77;;;12.20;99.90;;;;;;4996683;28;20458;-79
2022/10/20 00:59:03;;;;;;;21.17;17.73;;;12.20;99.90;;;;;;4992731;28;20827;-81
2022/10/20 01:01:30;;;;;;;20.07;17.97;;;12.30;99.90;;;;;;4987572;28;20463;-81
2022/10/20 01:03:57;;;;;;;20.83;18.10;;;12.30;99.90;;;;;;4993279;28;20447;-83
2022/10/20 01:06:24;;;;;;;20.03;16.70;;;12.20;99.90;;;;;;5001929;28;20478;-81
2022/10/20 01:08:52;;;;;;;22.00;18.27;;;12.20;99.90;;;;;;4995304;28;20444;-81
2022/10/20 01:11:31;;;;;;;23.50;17.33;;;12.20;99.90;;;;;;4998001;28;20484;-79
2022/10/20 01:14:15;;;;;;;19.73;17.80;;;12.10;99.90;;;;;;4991140;28;20441;-81
2022/10/20 01:16:51;;;;;;;18.93;16.43;;;12.10;99.90;;;;;;4993662;28;20824;-82
2022/10/20 01:19:47;;;;;;;18.90;15.77;;;12.10;99.90;;;;;;4994172;28;20444;-81
2022/10/20 01:22:31;;;;;;;19.47;17.10;;;12.10;99.90;;;;;;5007230;28;20458;-77
2022/10/20 01:25:11;;;;;;;28.13;17.50;;;12.10;99.90;;;;;;5008797;28;20434;-81
2022/10/20 01:27:42;;;;;;;21.70;17.23;;;12.10;99.90;;;;;;5002166;28;20507;-81
2022/10/20 01:30:14;;;;;;;23.07;16.67;;;12.10;99.90;;;;;;4990475;28;20476;-81
2022/10/20 01:32:53;;;;;;;22.00;17.60;;;12.20;99.90;;;;;;5001541;28;20460;-80
2022/10/20 01:35:31;;;;;;;23.30;17.73;;;12.10;99.90;;;;;;5009964;28;20435;-81
2022/10/20 01:38:06;;;;;;;18.27;16.33;;;12.10;99.90;;;;;;5011161;28;20474;-79
2022/10/20 01:40:38;;;;;;;22.03;17.40;;;12.00;99.90;;;;;;4990235;28;20448;-79
2022/10/20 01:43:09;;;;;;;21.10;17.10;;;12.00;99.90;;;;;;5002590;28;20448;-80
2022/10/20 01:45:40;;;;;;;19.13;17.10;;;12.00;99.90;;;;;;4995340;28;20443;-80
2022/10/20 01:48:09;;;;;;;22.33;18.83;;;12.00;99.90;;;;;;4992383;28;20448;-82
2022/10/20 01:50:38;;;;;;;18.67;16.77;;;12.00;99.90;;;;;;4995735;28;20514;-82
2022/10/20 01:53:05;;;;;;;18.00;16.10;;;12.00;99.90;;;;;;4992836;28;20447;-80
2022/10/20 01:55:33;;;;;;;18.53;16.47;;;11.90;99.90;;;;;;4986368;28;20627;-81
2022/10/20 01:58:15;;;;;;;21.23;17.80;;;11.90;99.90;;;;;;4993085;28;20451;-81
2022/10/20 02:00:43;;;;;;;19.73;17.47;;;11.90;99.90;;;;;;4988274;28;21023;-80
2022/10/20 02:03:34;;;;;;;21.93;17.23;;;11.90;99.90;;;;;;4988785;28;20447;-82
2022/10/20 02:06:11;;;;;;;22.63;17.07;;;11.80;99.90;;;;;;4988666;28;20439;-82
2022/10/20 02:08:43;;;;;;;24.13;19.73;;;11.80;99.90;;;;;;4987635;28;20806;-82
2022/10/20 02:11:17;;;;;;;23.40;17.87;;;11.80;99.90;;;;;;4987027;28;20487;-82
2022/10/20 02:13:45;;;;;;;23.37;18.40;;;11.80;99.90;;;;;;4988225;28;20439;-82
2022/10/20 02:16:17;;;;;;;28.43;17.70;;;11.80;99.90;;;;;;4985975;28;20440;-82
2022/10/20 02:18:47;;;;;;;18.90;15.57;;;11.70;99.90;;;;;;4992634;28;20936;-82
2022/10/20 02:21:14;;;;;;;17.37;15.60;;;11.80;99.90;;;;;;4994949;28;20983;-81
2022/10/20 02:23:44;;;;;;;18.17;16.00;;;11.70;99.90;;;;;;4990285;28;20471;-81
2022/10/20 02:26:14;;;;;;;18.33;16.30;;;11.80;99.90;;;;;;4992371;28;20444;-82
2022/10/20 02:28:46;;;;;;;19.63;15.30;;;11.80;99.90;;;;;;4991869;28;20451;-83
2022/10/20 02:31:13;;;;;;;17.20;15.37;;;11.80;99.90;;;;;;4988164;28;20491;-81
2022/10/20 02:33:42;;;;;;;20.50;17.07;;;11.80;99.90;;;;;;4994878;28;20440;-81
2022/10/20 02:36:14;;;;;;;22.60;16.07;;;11.80;99.90;;;;;;5018453;28;20498;-79
2022/10/20 02:38:41;;;;;;;21.17;16.20;;;11.80;99.90;;;;;;5004977;28;20432;-81
2022/10/20 02:41:07;;;;;;;22.10;16.30;;;11.80;99.90;;;;;;4991644;28;20482;-82
2022/10/20 02:43:34;;;;;;;19.47;16.40;;;11.80;99.90;;;;;;4995679;28;20460;-79
2022/10/20 02:46:02;;;;;;;20.63;18.47;;;11.80;99.90;;;;;;4998718;28;21374;-81
2022/10/20 02:48:29;;;;;;;17.70;15.70;;;11.80;99.90;;;;;;4992480;28;20474;-81
2022/10/20 02:50:56;;;;;;;19.63;16.30;;;11.80;99.90;;;;;;4987638;28;20479;-80
2022/10/20 02:53:22;;;;;;;19.97;15.40;;;11.80;99.90;;;;;;4999243;28;20439;-81
2022/10/20 02:55:49;;;;;;;22.83;16.47;;;11.80;99.90;;;;;;4994383;28;20444;-81
2022/10/20 02:58:16;;;;;;;20.00;17.20;;;11.80;99.90;;;;;;4997366;28;20436;-83
2022/10/20 03:00:42;;;;;;;22.63;16.50;;;11.90;99.90;;;;;;4988005;28;20462;-81
2022/10/20 03:03:10;;;;;;;19.37;16.30;;;11.90;99.90;;;;;;4989378;28;20421;-83
2022/10/20 03:05:40;;;;;;;20.83;15.60;;;12.00;99.90;;;;;;5007149;28;20440;-85
2022/10/20 03:08:07;;;;;;;20.07;17.03;;;12.00;99.90;;;;;;5010519;28;20436;-81
2022/10/20 03:10:36;;;;;;;22.13;17.40;;;12.00;99.90;;;;;;4990399;28;20859;-81
2022/10/20 03:13:02;;;;;;;21.10;17.80;;;11.90;99.90;;;;;;4993363;28;20961;-82
2022/10/20 03:15:29;;;;;;;22.53;15.87;;;11.90;99.90;;;;;;4989117;28;20446;-82
2022/10/20 03:17:57;;;;;;;22.73;17.97;;;11.90;99.90;;;;;;4991387;28;20444;-82
2022/10/20 03:20:25;;;;;;;18.20;16.27;;;11.80;99.90;;;;;;4990079;28;20443;-84
2022/10/20 03:22:52;;;;;;;18.30;15.70;;;11.80;99.90;;;;;;4988974;28;20454;-82
2022/10/20 03:25:19;;;;;;;22.97;16.33;;;11.90;99.90;;;;;;4991564;28;20452;-82
2022/10/20 03:27:46;;;;;;;23.40;18.50;;;11.90;99.90;;;;;;4991284;28;20439;-83
2022/10/20 03:30:12;;;;;;;21.30;16.30;;;11.90;99.90;;;;;;4988833;28;20440;-84
2022/10/20 03:32:39;;;;;;;22.13;16.80;;;11.90;99.90;;;;;;4989258;28;20463;-82
2022/10/20 03:35:07;;;;;;;19.30;17.03;;;11.90;99.90;;;;;;4991994;28;20443;-81
2022/10/20 03:37:35;;;;;;;19.43;17.17;;;11.90;99.90;;;;;;4999141;28;20454;-83
2022/10/20 03:40:01;;;;;;;20.37;16.87;;;11.90;99.90;;;;;;4997791;28;20435;-83
2022/10/20 03:42:28;;;;;;;23.67;18.67;;;11.90;99.90;;;;;;4999517;28;21000;-84
2022/10/20 03:44:55;;;;;;;22.53;16.63;;;11.90;99.90;;;;;;4999770;28;20443;-82
2022/10/20 03:47:21;;;;;;;21.77;17.50;;;12.00;99.90;;;;;;4994896;28;20459;-83
2022/10/20 03:49:48;;;;;;;24.80;18.60;;;12.00;99.90;;;;;;4998012;28;20799;-83
2022/10/20 03:52:15;;;;;;;20.30;17.80;;;12.00;99.90;;;;;;4990542;28;20494;-84
2022/10/20 03:54:43;;;;;;;18.67;16.10;;;12.00;99.90;;;;;;4984508;28;20440;-83
2022/10/20 03:57:10;;;;;;;24.30;16.70;;;12.10;99.90;;;;;;4986758;28;20441;-83
2022/10/20 03:59:36;;;;;;;22.10;19.50;;;12.20;99.90;;;;;;4985168;28;20467;-83
2022/10/20 04:02:03;;;;;;;19.40;17.30;;;12.20;99.90;;;;;;4989892;28;20456;-84
2022/10/20 04:04:30;;;;;;;20.43;17.20;;;12.20;99.90;;;;;;4996806;28;20526;-83
2022/10/20 04:06:56;;;;;;;24.83;19.53;;;12.20;99.90;;;;;;4999586;28;20440;-84
2022/10/20 04:09:23;;;;;;;22.03;17.47;;;12.20;99.90;;;;;;4985529;28;21092;-84
2022/10/20 04:11:51;;;;;;;20.73;17.70;;;12.20;99.90;;;;;;4988698;28;20496;-83
2022/10/20 04:14:18;;;;;;;20.13;17.53;;;12.20;99.90;;;;;;4985687;28;20877;-83
2022/10/20 04:16:44;;;;;;;21.97;17.83;;;12.20;99.90;;;;;;4983140;28;20525;-84
2022/10/20 04:19:11;;;;;;;22.07;18.67;;;12.30;99.90;;;;;;4983048;28;20499;-83
2022/10/20 04:21:38;;;;;;;24.07;19.40;;;12.30;99.90;;;;;;4985798;28;20832;-84
2022/10/20 04:24:06;;;;;;;20.70;16.40;;;12.30;99.90;;;;;;4985031;28;20440;-83
2022/10/20 04:26:32;;;;;;;26.43;19.53;;;12.30;99.90;;;;;;4986476;28;20463;-84
2022/10/20 04:29:01;;;;;;;23.83;18.80;;;12.40;99.90;;;;;;4988773;28;20443;-85
2022/10/20 04:31:28;;;;;;;24.03;20.73;;;12.30;99.90;;;;;;4985428;28;20479;-83
2022/10/20 04:33:54;;;;;;;22.10;18.40;;;12.30;99.90;;;;;;4984342;28;20456;-84
2022/10/20 04:36:24;;;;;;;26.40;19.73;;;12.30;99.90;;;;;;4987183;28;20439;-82
2022/10/20 04:38:51;;;;;;;20.20;17.10;;;12.40;99.90;;;;;;4996210;28;20932;-82
2022/10/20 04:41:18;;;;;;;26.70;18.63;;;12.40;99.90;;;;;;5005589;28;20689;-82
2022/10/20 04:43:49;;;;;;;23.27;18.43;;;12.40;99.90;;;;;;5007041;28;20452;-82
2022/10/20 04:46:18;;;;;;;24.73;18.70;;;12.40;99.90;;;;;;4987636;28;20894;-85
2022/10/20 04:48:45;;;;;;;23.30;19.40;;;12.40;99.90;;;;;;4987191;28;20436;-84
2022/10/20 04:51:14;;;;;;;26.20;19.43;;;12.40;99.90;;;;;;4989859;28;20495;-84
2022/10/20 04:53:40;;;;;;;22.27;17.13;;;12.40;99.90;;;;;;4985822;28;20437;-83
2022/10/20 04:56:10;;;;;;;26.00;19.73;;;12.40;99.90;;;;;;4987679;28;20444;-84
2022/10/20 04:58:37;;;;;;;31.57;19.73;;;12.40;99.90;;;;;;4986078;28;20455;-84
2022/10/20 05:01:05;;;;;;;25.93;19.00;;;12.50;99.90;;;;;;4991042;28;20459;-83
2022/10/20 05:03:33;;;;;;;24.23;21.10;;;12.50;99.90;;;;;;4981175;28;20478;-84
2022/10/20 05:06:11;;;;;;;20.53;16.70;;;12.50;99.90;;;;;;4983099;28;20469;-84
2022/10/20 05:08:38;;;;;;;22.70;17.67;;;12.50;99.90;;;;;;4986554;28;20823;-84
2022/10/20 05:11:06;;;;;;;25.20;19.47;;;12.50;99.90;;;;;;4988812;28;20487;-84
2022/10/20 05:13:32;;;;;;;23.43;18.80;;;12.50;99.90;;;;;;4983965;28;20453;-84
2022/10/20 05:15:59;;;;;;;23.20;19.60;;;12.50;99.90;;;;;;4996968;28;20448;-83
2022/10/20 05:18:26;;;;;;;24.13;18.87;;;12.50;99.90;;;;;;5000538;28;20439;-84
2022/10/20 05:20:54;;;;;;;28.13;19.63;;;12.50;99.90;;;;;;4997825;28;21212;-81
2022/10/20 05:23:21;;;;;;;24.63;20.10;;;12.50;99.90;;;;;;4993692;28;20443;-82
2022/10/20 05:25:48;;;;;;;26.50;19.50;;;12.40;99.90;;;;;;4986669;28;20445;-83
2022/10/20 05:28:14;;;;;;;23.40;20.13;;;12.40;99.90;;;;;;4989647;28;20448;-84
2022/10/20 05:30:41;;;;;;;27.23;21.37;;;12.40;99.90;;;;;;4982948;28;20467;-82
2022/10/20 05:33:08;;;;;;;25.60;20.03;;;12.30;99.90;;;;;;4985471;28;20443;-83
2022/10/20 05:35:35;;;;;;;29.73;20.53;;;12.40;99.90;;;;;;4990377;28;20826;-83
2022/10/20 05:38:03;;;;;;;25.50;19.20;;;12.30;99.90;;;;;;4993904;28;20443;-83
2022/10/20 05:40:30;;;;;;;25.47;19.43;;;12.30;99.90;;;;;;4989065;28;20818;-84
2022/10/20 05:42:59;;;;;;;30.63;20.33;;;12.40;99.90;;;;;;4992758;28;20436;-84
2022/10/20 05:45:27;;;;;;;24.90;18.77;;;12.40;99.90;;;;;;5017474;28;20440;-84
2022/10/20 05:47:54;;;;;;;28.53;20.73;;;12.30;99.90;;;;;;5012319;28;20453;-85
2022/10/20 05:50:21;;;;;;;23.93;18.90;;;12.40;99.90;;;;;;5005538;28;20435;-84
2022/10/20 05:52:48;;;;;;;23.77;18.27;;;12.40;99.90;;;;;;4997876;28;20471;-83
2022/10/20 05:55:16;;;;;;;22.23;18.73;;;12.40;99.90;;;;;;4984636;28;20440;-83
2022/10/20 05:57:43;;;;;;;30.40;19.73;;;12.30;99.90;;;;;;5009876;23;20586;-84
2022/10/20 06:00:11;;;;;;;31.80;20.80;;;12.30;99.90;;;;;;4995990;28;20893;-84
2022/10/20 06:02:37;;;;;;;29.40;20.30;;;12.30;99.90;;;;;;4996579;28;20440;-84
2022/10/20 06:05:04;;;;;;;26.13;18.93;;;12.30;99.90;;;;;;4992290;28;20447;-84
2022/10/20 06:07:31;;;;;;;29.83;19.10;;;12.30;99.90;;;;;;4981288;28;20464;-84
2022/10/20 06:09:58;;;;;;;31.17;22.90;;;12.40;99.90;;;;;;4992342;28;20445;-84
2022/10/20 06:12:26;;;;;;;31.33;20.80;;;12.40;99.90;;;;;;4998404;28;20481;-84
2022/10/20 06:14:53;;;;;;;24.90;20.47;;;12.40;99.90;;;;;;5005587;28;20430;-83
2022/10/20 06:17:20;;;;;;;29.00;19.83;;;12.50;99.90;;;;;;4988249;28;20507;-84
2022/10/20 06:19:46;;;;;;;29.00;20.43;;;12.60;99.90;;;;;;4982726;28;20470;-85
2022/10/20 06:22:13;;;;;;;29.20;19.50;;;12.60;99.90;;;;;;4980794;28;20448;-85
2022/10/20 06:24:40;;;;;;;29.63;20.33;;;12.60;99.90;;;;;;4977437;28;20448;-84
2022/10/20 06:27:07;;;;;;;24.43;18.77;;;12.70;99.90;;;;;;4973760;28;20467;-84
2022/10/20 06:29:35;;;;;;;23.50;19.00;;;12.80;99.90;;;;;;4988678;28;20474;-84
2022/10/20 06:32:02;;;;;;;24.43;19.63;;;12.80;99.90;;;;;;4976768;28;20487;-84
2022/10/20 06:34:29;;;;;;;24.60;18.33;;;12.90;99.90;;;;;;4980939;28;20443;-84
2022/10/20 06:36:55;;;;;;;28.43;19.33;;;12.90;99.90;;;;;;4982682;28;20967;-84
2022/10/20 06:39:23;;;;;;;25.67;19.57;;;13.00;99.90;;;;;;4983183;28;20441;-85
2022/10/20 06:41:52;;;;;;;21.70;18.53;;;13.00;99.90;;;;;;4984812;28;20440;-85
2022/10/20 06:44:20;;;;;;;27.27;19.83;;;13.10;99.90;;;;;;4981132;28;20462;-84
2022/10/20 06:46:51;;;;;;;26.77;19.23;;;13.20;99.90;;;;;;4979176;28;21018;-84
2022/10/20 06:49:17;;;;;;;26.07;19.37;;;13.20;99.90;;;;;;4980426;28;20871;-84
2022/10/20 06:51:44;;;;;;;24.87;19.80;;;13.20;99.90;;;;;;4982177;28;20483;-84
2022/10/20 06:54:11;;;;;;;26.93;19.47;;;13.30;99.90;;;;;;4988504;28;20443;-91
2022/10/20 06:56:39;;;;;;;23.20;17.87;;;13.40;99.90;;;;;;4986315;28;20478;-91
2022/10/20 06:59:06;;;;;;;23.60;18.93;;;13.40;99.90;;;;;;4987648;28;20470;-91
2022/10/20 07:01:35;;;;;;;29.80;20.90;;;13.50;99.90;;;;;;4990618;28;20480;-91
2022/10/20 07:04:06;;;;;;;25.30;18.37;;;13.60;99.90;;;;;;4983398;28;20530;-90
2022/10/20 07:06:34;;;;;;;25.23;16.30;;;13.70;99.90;;;;;;5001176;28;20471;-92
2022/10/20 07:09:03;;;;;;;30.57;17.17;;;13.80;99.90;;;;;;5021135;28;20428;-91
2022/10/20 07:11:31;;;;;;;21.97;16.70;;;13.80;99.90;;;;;;5013999;28;20560;-91
2022/10/20 07:13:59;;;;;;;26.20;20.17;;;13.90;99.90;;;;;;4990014;28;20523;-91
2022/10/20 07:16:28;;;;;;;20.10;16.03;;;14.00;99.90;;;;;;4984637;28;20563;-86
2022/10/20 07:18:56;;;;;;;23.57;17.97;;;14.10;99.90;;;;;;4982321;28;20936;-85
2022/10/20 07:21:26;;;;;;;25.67;17.23;;;14.20;99.90;;;;;;4989258;28;20460;-85
2022/10/20 07:23:55;;;;;;;26.00;19.10;;;14.30;99.90;;;;;;4986926;28;20941;-86
2022/10/20 07:26:24;;;;;;;20.90;16.70;;;14.30;99.90;;;;;;4991798;28;20445;-86
2022/10/20 07:28:53;;;;;;;25.40;16.17;;;14.50;99.90;;;;;;5006518;28;20436;-86
2022/10/20 07:31:22;;;;;;;21.50;16.30;;;14.50;99.90;;;;;;4998073;28;20443;-86
2022/10/20 07:33:49;;;;;;;16.80;13.90;;;14.60;99.90;;;;;;5004824;28;20435;-85
2022/10/20 07:36:18;;;;;;;20.10;15.73;;;14.60;99.90;;;;;;5008076;28;20444;-86
2022/10/20 07:38:46;;;;;;;16.07;12.70;;;14.70;99.90;;;;;;5003646;28;20805;-86
2022/10/20 07:41:14;;;;;;;16.00;14.40;;;14.80;99.90;;;;;;4979139;28;20448;-85
2022/10/20 07:43:41;;;;;;;17.00;14.60;;;15.00;99.90;;;;;;4983245;28;20435;-86
2022/10/20 07:46:09;;;;;;;13.90;12.40;;;15.20;99.90;;;;;;4989073;28;20452;-86
2022/10/20 07:48:35;;;;;;;17.63;14.00;;;15.40;99.90;;;;;;4983966;28;20451;-86
2022/10/20 07:51:24;;;;;;;15.83;13.83;;;15.50;99.90;;;;;;5014442;28;20444;-85
2022/10/20 07:53:53;;;;;;;13.83;11.70;;;15.80;99.90;;;;;;4987747;28;20466;-86
2022/10/20 07:56:20;;;;;;;15.23;10.60;;;16.10;99.90;;;;;;4984299;28;20447;-86
2022/10/20 07:58:48;;;;;;;15.13;12.77;;;16.30;99.90;;;;;;4975188;28;20453;-86
2022/10/20 08:01:15;;;;;;;10.90;9.80;;;16.50;99.90;;;;;;4978943;28;20821;-86
2022/10/20 08:03:41;;;;;;;18.93;12.67;;;17.20;99.90;;;;;;4981345;28;20440;-85
2022/10/20 08:06:08;;;;;;;12.63;10.90;;;17.80;99.90;;;;;;4982079;28;21073;-84
2022/10/20 08:08:35;;;;;;;13.73;10.23;;;18.00;99.90;;;;;;4981658;28;20446;-84
2022/10/20 08:11:04;;;;;;;12.40;11.10;;;17.80;99.90;;;;;;4991058;28;20435;-84
2022/10/20 08:13:31;;;;;;;12.63;10.60;;;17.60;99.90;;;;;;5007997;28;20484;-84
2022/10/20 08:15:58;;;;;;;12.70;11.40;;;17.60;99.90;;;;;;4997295;28;20446;-83
2022/10/20 08:18:25;;;;;;;10.67;9.60;;;18.10;99.90;;;;;;4982266;28;20817;-83
2022/10/20 08:20:51;;;;;;;11.20;10.20;;;18.90;99.90;;;;;;4987230;28;20454;-89
2022/10/20 08:23:18;;;;;;;11.53;10.43;;;19.30;99.90;;;;;;4987304;28;20444;-83
2022/10/20 08:25:45;;;;;;;12.60;9.77;;;19.70;99.90;;;;;;4989052;28;21126;-83
2022/10/20 08:28:13;;;;;;;10.67;9.50;;;19.80;99.90;;;;;;4987653;28;20463;-83
2022/10/20 08:30:40;;;;;;;10.80;9.53;;;19.60;99.90;;;;;;4990355;28;20460;-82
2022/10/20 08:33:06;;;;;;;10.90;9.83;;;19.10;99.90;;;;;;4975495;28;20907;-87
2022/10/20 08:35:33;;;;;;;10.83;9.67;;;18.70;99.90;;;;;;4978100;28;20443;-87
2022/10/20 08:38:00;;;;;;;11.43;10.20;;;18.10;99.90;;;;;;5002676;28;20452;-88
2022/10/20 08:40:29;;;;;;;10.00;9.10;;;18.30;99.90;;;;;;4992964;28;20980;-88
2022/10/20 08:42:56;;;;;;;10.83;9.43;;;18.30;99.90;;;;;;4981210;28;20486;-88
2022/10/20 08:45:26;;;;;;;11.37;10.27;;;18.20;99.90;;;;;;4992931;28;20459;-84
2022/10/20 08:47:55;;;;;;;10.00;9.03;;;18.10;99.90;;;;;;4992133;28;20469;-84
2022/10/20 08:50:26;;;;;;;13.70;8.50;;;18.00;99.90;;;;;;5009698;28;20451;-84
2022/10/20 08:52:56;;;;;;;10.70;8.73;;;18.20;99.90;;;;;;5014011;28;20518;-89
2022/10/20 08:55:27;;;;;;;11.03;9.20;;;18.30;99.90;;;;;;5004966;28;20462;-88
2022/10/20 08:58:00;;;;;;;10.30;9.40;;;18.40;99.90;;;;;;5010006;28;20475;-86
2022/10/20 09:00:30;;;;;;;13.47;10.13;;;18.50;99.90;;;;;;4995729;28;20518;-83
2022/10/20 09:03:01;;;;;;;9.23;8.33;;;18.60;99.90;;;;;;4994384;28;20884;-84
2022/10/20 09:05:32;;;;;;;10.17;9.10;;;18.40;99.90;;;;;;4994050;28;20456;-86
2022/10/20 09:07:59;;;;;;;10.37;9.27;;;18.40;99.90;;;;;;4993910;28;20484;-84
2022/10/20 09:10:32;;;;;;;10.27;8.80;;;18.30;99.90;;;;;;4994225;28;20451;-87
2022/10/20 09:13:00;;;;;;;15.13;8.20;;;18.40;99.90;;;;;;4993849;28;20538;-87
2022/10/20 09:15:29;;;;;;;9.00;8.10;;;18.60;99.90;;;;;;4993919;28;20443;-84
2022/10/20 09:17:59;;;;;;;10.33;8.30;;;18.90;99.90;;;;;;4994002;28;20872;-85
2022/10/20 09:20:30;;;;;;;8.87;6.63;;;19.10;99.90;;;;;;4993642;28;20475;-85
2022/10/20 09:22:57;;;;;;;7.90;7.20;;;19.40;99.90;;;;;;5000112;28;20439;-84
2022/10/20 09:25:26;;;;;;;9.40;8.17;;;19.40;99.90;;;;;;5018478;28;20447;-85
2022/10/20 09:27:53;;;;;;;10.63;7.53;;;19.50;99.90;;;;;;4994425;28;20563;-85
2022/10/20 09:30:24;;;;;;;8.00;6.90;;;19.80;99.90;;;;;;4993583;28;20826;-85
2022/10/20 09:32:53;;;;;;;7.70;6.93;;;19.80;99.90;;;;;;4993622;28;20483;-85
2022/10/20 09:35:23;;;;;;;7.70;7.00;;;19.60;99.90;;;;;;4993391;28;20452;-85
2022/10/20 09:38:02;;;;;;;11.90;7.77;;;19.50;99.90;;;;;;4993622;28;20475;-85
2022/10/20 09:40:30;;;;;;;6.73;6.03;;;19.40;99.90;;;;;;4993744;28;20470;-84
2022/10/20 09:43:01;;;;;;;9.10;7.13;;;19.50;99.90;;;;;;5004116;28;20454;-85
2022/10/20 09:45:30;;;;;;;9.10;7.53;;;19.50;99.90;;;;;;5010194;28;20455;-85
2022/10/20 09:48:02;;;;;;;9.37;7.00;;;19.50;99.90;;;;;;5011112;28;20531;-85
2022/10/20 09:50:31;;;;;;;7.97;7.17;;;19.60;99.90;;;;;;5012403;28;20473;-85
2022/10/20 09:53:01;;;;;;;9.30;7.67;;;19.60;99.90;;;;;;5008060;28;20486;-85
2022/10/20 09:55:30;;;;;;;7.97;6.97;;;19.50;99.90;;;;;;5017463;28;20462;-85
2022/10/20 09:58:02;;;;;;;8.83;6.10;;;19.30;99.90;;;;;;4996676;28;20485;-85
2022/10/20 10:00:32;;;;;;;8.17;7.33;;;19.20;99.90;;;;;;4992869;28;20811;-84
2022/10/20 10:03:20;;;;;;;7.63;6.83;;;19.10;99.90;;;;;;4993383;28;20452;-85
2022/10/20 10:05:50;;;;;;;8.37;6.30;;;19.00;99.90;;;;;;5007927;28;20447;-85
2022/10/20 10:08:18;;;;;;;8.53;6.00;;;19.10;99.90;;;;;;5007952;28;20470;-85
2022/10/20 10:10:56;;;;;;;8.53;6.53;;;19.00;99.90;;;;;;4993261;28;20455;-85
2022/10/20 10:13:27;;;;;;;7.77;7.07;;;18.90;99.90;;;;;;4993055;28;20836;-85
2022/10/20 10:16:03;;;;;;;7.67;6.90;;;18.80;99.90;;;;;;4993478;28;20458;-86
2022/10/20 10:18:32;;;;;;;8.00;6.13;;;19.00;99.90;;;;;;4993001;28;20455;-83
2022/10/20 10:21:01;;;;;;;9.43;7.27;;;19.30;99.90;;;;;;4993070;28;20482;-84
2022/10/20 10:23:30;;;;;;;6.83;6.33;;;19.50;99.90;;;;;;4991906;28;20440;-84
2022/10/20 10:25:57;;;;;;;8.80;5.97;;;19.80;99.90;;;;;;4992789;28;20447;-84
2022/10/20 10:28:36;;;;;;;9.33;6.97;;;19.90;99.90;;;;;;5012107;28;20468;-85
2022/10/20 10:31:22;;;;;;;8.33;5.50;;;20.10;99.90;;;;;;5006774;28;20454;-84
2022/10/20 10:34:01;;;;;;;7.87;5.67;;;20.10;99.90;;;;;;4993423;28;21019;-85
2022/10/20 10:36:33;;;;;;;6.43;5.83;;;20.00;99.90;;;;;;4994885;28;20471;-84
2022/10/20 10:39:01;;;;;;;9.30;6.70;;;20.00;99.90;;;;;;4995393;28;20873;-84
2022/10/20 10:41:47;;;;;;;6.90;6.30;;;19.70;99.90;;;;;;4992363;28;20536;-84
2022/10/20 10:44:24;;;;;;;11.17;6.63;;;19.60;99.90;;;;;;4992904;28;20506;-84
2022/10/20 10:47:02;;;;;;;7.53;6.80;;;19.60;99.90;;;;;;4991845;28;20463;-84
2022/10/20 10:49:54;;;;;;;6.87;6.20;;;19.40;99.90;;;;;;4992556;28;20447;-84
2022/10/20 10:52:31;;;;;;;6.90;6.27;;;19.40;99.90;;;;;;4993919;28;20447;-84
2022/10/20 10:55:08;;;;;;;10.50;6.73;;;19.60;99.90;;;;;;4992864;28;20455;-83
2022/10/20 10:57:48;;;;;;;6.53;5.87;;;19.50;99.90;;;;;;5008622;28;20482;-85
2022/10/20 11:00:21;;;;;;;8.10;6.00;;;19.70;99.90;;;;;;4993211;28;20958;-86
2022/10/20 11:03:00;;;;;;;7.60;6.07;;;19.70;99.90;;;;;;4992905;28;20454;-86
2022/10/20 11:05:52;;;;;;;8.27;7.00;;;19.70;99.90;;;;;;4993030;28;20458;-86
2022/10/20 11:08:30;;;;;;;9.37;6.27;;;19.60;99.90;;;;;;4993209;28;20468;-86
2022/10/20 11:11:07;;;;;;;8.67;6.90;;;19.40;99.90;;;;;;5011237;28;20451;-86
2022/10/20 11:13:41;;;;;;;9.37;6.80;;;19.20;99.90;;;;;;5001503;28;20515;-86
2022/10/20 11:16:22;;;;;;;7.40;6.30;;;19.10;99.90;;;;;;4992810;28;20451;-86
2022/10/20 11:19:08;;;;;;;7.13;6.50;;;19.10;99.90;;;;;;5001953;28;20446;-87
2022/10/20 11:21:45;;;;;;;8.87;6.63;;;19.10;99.90;;;;;;5012711;28;20444;-86
2022/10/20 11:24:32;;;;;;;8.63;6.40;;;19.10;99.90;;;;;;4993548;28;20454;-85
2022/10/20 11:27:03;;;;;;;6.80;5.80;;;19.20;99.90;;;;;;4992085;28;20471;-85
2022/10/20 11:29:33;;;;;;;10.00;6.97;;;19.20;99.90;;;;;;4992404;28;20451;-85
2022/10/20 11:32:10;;;;;;;7.20;5.67;;;19.30;99.90;;;;;;4992021;28;20447;-85
2022/10/20 11:34:46;;;;;;;6.63;5.90;;;19.40;99.90;;;;;;5004938;28;20490;-84
2022/10/20 11:37:21;;;;;;;7.40;6.70;;;19.60;99.90;;;;;;5016117;28;20463;-85
2022/10/20 11:39:54;;;;;;;9.07;7.10;;;19.60;99.90;;;;;;4999963;28;20450;-83
2022/10/20 11:42:32;;;;;;;7.30;6.60;;;19.80;99.90;;;;;;4996296;28;20458;-85
2022/10/20 11:45:01;;;;;;;7.70;6.80;;;19.90;99.90;;;;;;4995433;28;20865;-85
2022/10/20 11:47:34;;;;;;;8.00;7.20;;;19.90;99.90;;;;;;4994017;28;20467;-84
2022/10/20 11:50:03;;;;;;;8.27;7.33;;;19.90;99.90;;;;;;4995998;28;20451;-85
2022/10/20 11:53:12;;;;;;;9.17;6.10;;;19.80;99.90;;;;;;4995353;28;20443;-85
2022/10/20 11:55:51;;;;;;;8.73;6.53;;;19.50;99.90;;;;;;4980914;28;20443;-84
2022/10/20 11:58:39;;;;;;;7.20;5.83;;;19.50;99.90;;;;;;5039441;23;20690;-85
2022/10/20 12:01:29;;;;;;;10.67;5.90;;;19.60;99.90;;;;;;5023573;28;20442;-85
2022/10/20 12:04:21;;;;;;;6.83;6.20;;;19.50;99.90;;;;;;5023537;28;20442;-85
2022/10/20 12:07:15;;;;;;;8.47;6.17;;;19.50;99.90;;;;;;5022982;28;20449;-85
2022/10/20 12:10:00;;;;;;;6.97;5.80;;;19.60;99.90;;;;;;5022609;28;20446;-85
2022/10/20 12:12:32;;;;;;;8.67;5.97;;;19.60;99.90;;;;;;5007707;28;20439;-88
2022/10/20 12:15:01;;;;;;;7.97;5.80;;;19.60;99.90;;;;;;5004110;28;20471;-86
2022/10/20 12:17:32;;;;;;;7.20;6.40;;;19.60;99.90;;;;;;5009343;28;20463;-86
2022/10/20 12:20:38;;;;;;;7.30;5.83;;;19.50;99.90;;;;;;5010140;28;20470;-86
2022/10/20 12:23:05;;;;;;;6.77;5.73;;;19.30;99.90;;;;;;4989520;28;20443;-86
2022/10/20 12:25:40;;;;;;;7.80;6.17;;;19.30;99.90;;;;;;5010389;28;20431;-84
2022/10/20 12:28:39;;;;;;;6.90;5.03;;;19.20;99.90;;;;;;5006889;28;20535;-87
2022/10/20 12:31:06;;;;;;;6.83;5.70;;;19.10;99.90;;;;;;5018880;28;20543;-84
2022/10/20 12:33:42;;;;;;;8.43;5.80;;;19.00;99.90;;;;;;5017703;28;20490;-83
2022/10/20 12:36:28;;;;;;;7.63;5.20;;;19.00;99.90;;;;;;5020855;28;20438;-85
2022/10/20 12:39:20;;;;;;;7.30;5.30;;;19.20;99.90;;;;;;5019968;28;20483;-84
2022/10/20 12:42:03;;;;;;;6.33;5.17;;;19.40;99.90;;;;;;5024901;28;20461;-90
2022/10/20 12:44:38;;;;;;;6.33;4.73;;;19.50;99.90;;;;;;5011704;28;20813;-84
2022/10/20 12:47:07;;;;;;;9.10;5.67;;;19.40;99.90;;;;;;5014594;28;20478;-83
2022/10/20 12:49:36;;;;;;;8.13;6.30;;;19.40;99.90;;;;;;5005491;28;20438;-85
2022/10/20 12:52:06;;;;;;;7.60;5.20;;;19.30;99.90;;;;;;5016089;28;20465;-84